^^
Station Historical Data
 
Daily Summary for July 05, 2015 Units:  English    Metric   Both
« Previous Day
Next Day »
Daily Weekly Monthly Yearly Custom
  Current: High: Low: Average:
Temperature: 75.1 °F 82.4 °F 60.6 °F 70.7 °F
Dew Point: 67.8 °F 71.4 °F 60.3 °F 66 °F
Humidity: 78% 100% 61% 87%
Wind Speed: 0.0mph 4.6mph 0.0mph 2.1mph
Wind Gust: 0.0mph 4.6mph - -
WindCalm - - WSW
Pressure: 30.06 in 30.10 in 29.99 in -
Precipitation: 0.01 in      
Historical Graphs
 
 
Tabular Data for July 05, 2015
Time Temperature Dew Point Pressure Wind Wind Speed Wind Gust Humidity Rainfall Rate (Hourly)
00:00 63.5 °F 62.9 °F 29.99 in Calm     98% 0.00 in
00:05 63.4 °F 62.8 °F 29.99 in Calm     98% 0.00 in
00:10 63.3 °F 62.7 °F 30.00 in Calm     98% 0.00 in
00:15 63.2 °F 62.6 °F 30.00 in Calm     98% 0.00 in
00:20 63.1 °F 62.5 °F 30.00 in Calm     98% 0.00 in
00:25 63.1 °F 62.5 °F 30.00 in Calm     98% 0.00 in
00:30 63.0 °F 62.4 °F 30.00 in Calm     98% 0.00 in
00:35 63.1 °F 62.5 °F 30.00 in Calm     98% 0.00 in
00:40 63.0 °F 62.4 °F 30.00 in Calm     98% 0.00 in
00:45 62.9 °F 62.3 °F 30.00 in Calm     98% 0.00 in
00:50 62.8 °F 62.2 °F 30.00 in Calm     98% 0.00 in
00:55 62.7 °F 62.1 °F 30.00 in Calm     98% 0.00 in
01:00 62.7 °F 62.1 °F 30.01 in Calm     98% 0.00 in
01:05 62.7 °F 62.1 °F 30.01 in Calm     98% 0.00 in
01:10 62.6 °F 62.0 °F 30.01 in Calm     98% 0.00 in
01:15 62.5 °F 61.9 °F 30.01 in Calm     98% 0.00 in
01:20 62.3 °F 61.7 °F 30.01 in Calm     98% 0.00 in
01:25 62.2 °F 61.6 °F 30.01 in Calm     98% 0.00 in
01:30 62.1 °F 61.5 °F 30.01 in Calm     98% 0.00 in
01:35 62.0 °F 61.4 °F 30.01 in Calm     98% 0.00 in
01:40 62.0 °F 61.4 °F 30.01 in Calm     98% 0.00 in
01:45 62.0 °F 61.4 °F 30.01 in Calm     98% 0.00 in
01:50 62.0 °F 61.4 °F 30.00 in Calm     98% 0.00 in
01:55 62.0 °F 61.4 °F 30.00 in Calm     98% 0.00 in
02:00 62.0 °F 61.7 °F 30.00 in Calm     99% 0.00 in
02:05 61.9 °F 61.6 °F 30.00 in Calm     99% 0.00 in
02:10 61.9 °F 61.6 °F 30.00 in Calm     99% 0.00 in
02:15 61.8 °F 61.5 °F 30.00 in Calm     99% 0.00 in
02:20 61.8 °F 61.5 °F 30.00 in Calm     99% 0.00 in
02:25 61.8 °F 61.5 °F 30.00 in Calm     99% 0.00 in
02:30 61.7 °F 61.4 °F 30.00 in Calm     99% 0.00 in
02:35 61.7 °F 61.4 °F 30.00 in Calm     99% 0.00 in
02:40 61.7 °F 61.4 °F 30.01 in Calm     99% 0.00 in
02:45 61.8 °F 61.5 °F 30.01 in Calm     99% 0.00 in
02:50 61.7 °F 61.4 °F 30.00 in Calm     99% 0.00 in
02:55 61.7 °F 61.4 °F 30.01 in Calm     99% 0.00 in
03:00 61.6 °F 61.3 °F 30.01 in Calm     99% 0.00 in
03:05 61.6 °F 61.3 °F 30.01 in Calm     99% 0.00 in
03:10 61.6 °F 61.3 °F 30.01 in Calm     99% 0.00 in
03:15 61.7 °F 61.4 °F 30.01 in Calm     99% 0.00 in
03:20 61.7 °F 61.4 °F 30.01 in Calm     99% 0.00 in
03:25 61.7 °F 61.4 °F 30.01 in Calm     99% 0.00 in
03:30 61.7 °F 61.4 °F 30.01 in Calm     99% 0.00 in
03:35 61.6 °F 61.3 °F 30.02 in Calm     99% 0.00 in
03:40 61.5 °F 61.2 °F 30.02 in Calm     99% 0.00 in
03:45 61.4 °F 61.1 °F 30.02 in Calm     99% 0.00 in
03:50 61.4 °F 61.1 °F 30.02 in Calm     99% 0.00 in
03:55 61.4 °F 61.1 °F 30.02 in Calm     99% 0.00 in
04:00 61.3 °F 61.0 °F 30.02 in Calm     99% 0.00 in
04:05 61.2 °F 60.9 °F 30.02 in Calm     99% 0.00 in
04:10 61.2 °F 60.9 °F 30.02 in Calm     99% 0.00 in
04:15 61.1 °F 60.8 °F 30.02 in Calm     99% 0.00 in
04:20 61.1 °F 60.8 °F 30.02 in Calm     99% 0.00 in
04:25 60.9 °F 60.6 °F 30.02 in Calm     99% 0.00 in
04:30 60.9 °F 60.6 °F 30.02 in Calm     99% 0.00 in
04:35 60.9 °F 60.6 °F 30.02 in Calm     99% 0.00 in
04:40 60.9 °F 60.6 °F 30.02 in Calm     99% 0.00 in
04:45 60.9 °F 60.6 °F 30.02 in Calm     99% 0.00 in
04:50 60.9 °F 60.6 °F 30.02 in Calm     99% 0.00 in
04:55 60.9 °F 60.6 °F 30.02 in Calm     99% 0.00 in
05:00 60.9 °F 60.6 °F 30.02 in Calm     99% 0.00 in
05:05 60.9 °F 60.6 °F 30.02 in Calm     99% 0.00 in
05:10 60.9 °F 60.6 °F 30.03 in Calm     99% 0.00 in
05:15 60.9 °F 60.6 °F 30.03 in Calm     99% 0.00 in
05:20 60.8 °F 60.5 °F 30.03 in Calm     99% 0.00 in
05:25 60.8 °F 60.5 °F 30.03 in Calm     99% 0.00 in
05:30 60.8 °F 60.5 °F 30.03 in Calm     99% 0.00 in
05:35 60.7 °F 60.4 °F 30.04 in Calm     99% 0.00 in
05:40 60.7 °F 60.4 °F 30.04 in Calm     99% 0.00 in
05:45 60.7 °F 60.4 °F 30.04 in Calm     99% 0.00 in
05:50 60.6 °F 60.3 °F 30.04 in Calm     99% 0.00 in
05:55 60.7 °F 60.4 °F 30.04 in Calm     99% 0.01 in
06:00 60.7 °F 60.4 °F 30.05 in Calm     99% 0.01 in
06:05 60.7 °F 60.4 °F 30.05 in Calm     99% 0.01 in
06:10 60.7 °F 60.7 °F 30.05 in Calm     100% 0.01 in
06:15 60.8 °F 60.8 °F 30.05 in Calm     100% 0.01 in
06:20 60.8 °F 60.8 °F 30.05 in Calm     100% 0.01 in
06:25 60.9 °F 60.6 °F 30.05 in Calm     99% 0.01 in
06:30 61.0 °F 61.0 °F 30.06 in Calm     100% 0.01 in
06:35 61.2 °F 61.2 °F 30.06 in Calm     100% 0.01 in
06:40 61.3 °F 61.3 °F 30.06 in Calm     100% 0.01 in
06:45 61.5 °F 61.5 °F 30.06 in Calm     100% 0.01 in
06:50 61.6 °F 61.6 °F 30.06 in Calm     100% 0.01 in
06:55 61.8 °F 61.8 °F 30.06 in Calm     100% 0.00 in
07:00 62.0 °F 62.0 °F 30.06 in Calm     100% 0.00 in
07:05 62.1 °F 62.1 °F 30.07 in Calm     100% 0.00 in
07:10 62.3 °F 62.3 °F 30.07 in Calm     100% 0.00 in
07:15 62.4 °F 62.4 °F 30.07 in Calm     100% 0.00 in
07:20 62.6 °F 62.6 °F 30.07 in Calm     100% 0.00 in
07:25 62.7 °F 62.7 °F 30.07 in Calm     100% 0.00 in
07:30 62.8 °F 62.8 °F 30.07 in Calm     100% 0.00 in
07:35 62.9 °F 62.9 °F 30.07 in Calm     100% 0.00 in
07:40 63.1 °F 63.1 °F 30.08 in Calm     100% 0.00 in
07:45 63.3 °F 63.3 °F 30.08 in Calm     100% 0.00 in
07:50 63.4 °F 63.4 °F 30.08 in Calm     100% 0.00 in
07:55 63.6 °F 63.6 °F 30.08 in Calm     100% 0.00 in
08:00 63.8 °F 63.8 °F 30.08 in Calm     100% 0.00 in
08:05 64.1 °F 64.1 °F 30.08 in Calm     100% 0.00 in
08:10 64.2 °F 64.2 °F 30.07 in Calm     100% 0.00 in
08:15 64.2 °F 64.2 °F 30.08 in ESE 2.0 mph 2.0 mph 100% 0.00 in
08:20 64.3 °F 64.3 °F 30.08 in Calm   0.1 mph 100% 0.00 in
08:25 64.5 °F 64.5 °F 30.08 in Calm     100% 0.00 in
08:30 64.8 °F 64.8 °F 30.08 in Calm     100% 0.00 in
08:35 65.0 °F 65.0 °F 30.08 in Calm     100% 0.00 in
08:40 65.2 °F 65.2 °F 30.08 in Calm     100% 0.00 in
08:45 65.4 °F 65.4 °F 30.08 in Calm     100% 0.00 in
08:50 65.5 °F 65.5 °F 30.08 in NW 1.2 mph 1.2 mph 100% 0.00 in
08:55 65.6 °F 65.6 °F 30.08 in Calm     100% 0.00 in
09:00 65.8 °F 65.8 °F 30.09 in Calm     100% 0.00 in
09:05 66.0 °F 66.0 °F 30.09 in Calm     100% 0.00 in
09:10 66.3 °F 66.3 °F 30.09 in NW 1.2 mph   100% 0.00 in
09:15 66.4 °F 66.4 °F 30.09 in NW 1.2 mph   100% 0.00 in
09:20 66.9 °F 66.9 °F 30.09 in NW 1.2 mph   100% 0.00 in
09:25 67.6 °F 67.6 °F 30.10 in Calm   0.1 mph 100% 0.00 in
09:30 67.7 °F 67.7 °F 30.09 in NW 2.3 mph 2.3 mph 100% 0.00 in
09:35 68.0 °F 68.0 °F 30.09 in NW 1.2 mph   100% 0.00 in
09:40 68.3 °F 68.3 °F 30.09 in NW 3.5 mph 3.5 mph 100% 0.00 in
09:45 68.4 °F 68.4 °F 30.09 in NW 1.2 mph 1.2 mph 100% 0.00 in
09:50 68.6 °F 68.3 °F 30.10 in Calm     99% 0.00 in
09:58 69.6 °F 68.7 °F 30.09 in NW 2.3 mph 2.3 mph 97% 0.00 in
10:03 70.0 °F 68.5 °F 30.09 in NW 2.3 mph 2.3 mph 95% 0.00 in
10:08 70.5 °F 68.7 °F 30.10 in NW 3.5 mph   94% 0.00 in
10:13 71.2 °F 69.1 °F 30.09 in NW 1.0 mph   93% 0.00 in
10:18 71.6 °F 68.8 °F 30.09 in NW 2.0 mph 2.0 mph 91% 0.00 in
10:23 72.0 °F 69.2 °F 30.09 in NW 2.3 mph 2.3 mph 91% 0.00 in
10:28 72.4 °F 68.6 °F 30.09 in NW 2.3 mph   88% 0.00 in
10:33 73.0 °F 68.9 °F 30.10 in Calm   0.4 mph 87% 0.00 in
10:38 73.3 °F 69.2 °F 30.10 in NW 3.5 mph   87% 0.00 in
10:43 73.3 °F 68.5 °F 30.10 in NW 2.3 mph 2.3 mph 85% 0.00 in
10:48 73.5 °F 69.1 °F 30.10 in NNW 4.6 mph 4.6 mph 86% 0.00 in
10:53 73.7 °F 68.2 °F 30.10 in NNW 2.3 mph 2.3 mph 83% 0.00 in
11:03 74.1 °F 69.3 °F 30.09 in NNW 1.2 mph   85% 0.00 in
11:08 74.2 °F 69.1 °F 30.09 in NNW 1.2 mph 1.2 mph 84% 0.00 in
11:18 73.9 °F 68.8 °F 30.10 in NNW 2.3 mph 2.3 mph 84% 0.00 in
11:23 73.7 °F 68.2 °F 30.10 in Calm     83% 0.00 in
11:28 73.7 °F 68.9 °F 30.10 in NNW 1.2 mph 1.2 mph 85% 0.00 in
11:33 73.7 °F 68.9 °F 30.10 in Calm     85% 0.00 in
11:38 73.7 °F 68.9 °F 30.10 in NNW 1.0 mph 1.0 mph 85% 0.00 in
11:43 73.5 °F 68.7 °F 30.10 in NNW 1.2 mph 1.2 mph 85% 0.00 in
11:48 73.5 °F 68.4 °F 30.10 in Calm     84% 0.00 in
11:53 73.4 °F 68.6 °F 30.09 in Calm     85% 0.00 in
11:58 73.6 °F 68.8 °F 30.09 in NNW 1.0 mph   85% 0.00 in
12:03 73.6 °F 68.8 °F 30.09 in Calm     85% 0.00 in
12:08 73.8 °F 69.3 °F 30.10 in NNW 1.2 mph   86% 0.00 in
12:13 74.0 °F 68.9 °F 30.09 in NNW 2.3 mph 2.3 mph 84% 0.00 in
12:18 74.3 °F 69.5 °F 30.09 in Calm     85% 0.00 in
12:23 74.8 °F 69.6 °F 30.09 in NNW 1.0 mph 1.0 mph 84% 0.00 in
12:28 75.2 °F 69.3 °F 30.09 in NW 1.2 mph 1.2 mph 82% 0.00 in
12:33 75.5 °F 69.6 °F 30.09 in NW 3.5 mph 3.5 mph 82% 0.00 in
12:38 75.6 °F 69.7 °F 30.09 in Calm     82% 0.00 in
12:43 75.7 °F 69.8 °F 30.10 in NW 1.2 mph 1.2 mph 82% 0.00 in
12:48 75.7 °F 69.8 °F 30.10 in NW 3.5 mph 3.5 mph 82% 0.00 in
12:53 75.7 °F 69.8 °F 30.10 in Calm     82% 0.00 in
12:58 75.8 °F 69.9 °F 30.10 in Calm     82% 0.00 in
13:03 75.7 °F 69.5 °F 30.10 in NW 1.2 mph   81% 0.00 in
13:08 75.8 °F 70.3 °F 30.10 in NW 2.3 mph 2.3 mph 83% 0.00 in
13:13 76.2 °F 69.9 °F 30.09 in Calm   0.1 mph 81% 0.00 in
13:18 76.7 °F 70.8 °F 30.09 in NW 2.3 mph   82% 0.00 in
13:23 77.1 °F 71.2 °F 30.09 in NNW 4.6 mph 4.6 mph 82% 0.00 in
13:28 77.3 °F 71.4 °F 30.09 in NNW 1.2 mph 1.2 mph 82% 0.00 in
13:33 77.6 °F 70.6 °F 30.09 in NNW 2.3 mph 2.3 mph 79% 0.00 in
13:38 77.7 °F 71.0 °F 30.09 in North 3.5 mph   80% 0.00 in
13:43 77.6 °F 70.6 °F 30.09 in North 1.2 mph   79% 0.00 in
13:48 77.5 °F 70.1 °F 30.09 in NE 2.3 mph 2.3 mph 78% 0.00 in
13:53 77.6 °F 70.9 °F 30.09 in Calm     80% 0.00 in
13:58 77.9 °F 70.9 °F 30.09 in ESE 3.5 mph 3.5 mph 79% 0.00 in
14:03 78.2 °F 69.6 °F 30.09 in Calm     75% 0.00 in
14:08 78.5 °F 70.3 °F 30.09 in ESE 1.2 mph   76% 0.00 in
14:13 78.9 °F 70.7 °F 30.08 in Calm     76% 0.00 in
14:18 79.3 °F 71.1 °F 30.08 in ESE 1.2 mph   76% 0.00 in
14:23 79.8 °F 71.2 °F 30.08 in ESE 3.5 mph 3.5 mph 75% 0.00 in
14:28 80.0 °F 70.6 °F 30.08 in ESE 1.2 mph 1.2 mph 73% 0.00 in
14:33 79.7 °F 69.9 °F 30.08 in ENE 1.2 mph 1.2 mph 72% 0.00 in
14:38 79.1 °F 70.1 °F 30.08 in SE 2.3 mph 2.3 mph 74% 0.00 in
14:43 78.9 °F 69.5 °F 30.08 in Calm   0.1 mph 73% 0.00 in
14:48 79.2 °F 70.2 °F 30.07 in SE 1.0 mph 1.0 mph 74% 0.00 in
14:53 79.8 °F 71.2 °F 30.07 in SE 1.2 mph 1.2 mph 75% 0.00 in
14:58 80.2 °F 70.8 °F 30.07 in SE 1.2 mph   73% 0.00 in
15:03 80.5 °F 69.8 °F 30.07 in SE 2.3 mph 2.3 mph 70% 0.00 in
15:08 80.8 °F 70.9 °F 30.07 in SE 3.5 mph 3.5 mph 72% 0.00 in
15:13 81.0 °F 69.9 °F 30.07 in SSE 3.5 mph 3.5 mph 69% 0.00 in
15:18 81.1 °F 70.4 °F 30.07 in SSE 1.2 mph 1.2 mph 70% 0.00 in
15:23 81.1 °F 70.0 °F 30.07 in Calm   0.1 mph 69% 0.00 in
15:28 81.2 °F 69.6 °F 30.06 in SSE 1.2 mph   68% 0.00 in
15:33 81.3 °F 71.0 °F 30.07 in SSE 3.5 mph 3.5 mph 71% 0.00 in
15:38 81.5 °F 69.5 °F 30.07 in SSE 3.5 mph 3.5 mph 67% 0.00 in
15:43 81.8 °F 68.4 °F 30.06 in SSE 2.3 mph 2.3 mph 64% 0.00 in
15:48 82.0 °F 67.2 °F 30.06 in SSE 1.0 mph   61% 0.00 in
15:53 82.3 °F 68.4 °F 30.06 in Calm     63% 0.00 in
15:59 82.1 °F 68.3 °F 30.06 in SSE 3.5 mph   63% 0.00 in
16:04 82.1 °F 70.1 °F 30.06 in SSE 2.3 mph   67% 0.00 in
16:09 82.0 °F 69.5 °F 30.06 in SSE 4.0 mph 4.0 mph 66% 0.00 in
16:14 82.0 °F 69.1 °F 30.06 in SSE 1.0 mph 1.2 mph 65% 0.00 in
16:19 81.9 °F 69.4 °F 30.06 in Calm     66% 0.00 in
16:24 81.7 °F 68.3 °F 30.05 in SSE 3.0 mph 3.0 mph 64% 0.00 in
16:29 81.8 °F 68.4 °F 30.05 in SSE 1.2 mph 1.2 mph 64% 0.00 in
16:34 81.9 °F 69.0 °F 30.05 in South 3.0 mph 3.0 mph 65% 0.00 in
16:39 82.0 °F 67.7 °F 30.05 in WNW 3.5 mph 3.5 mph 62% 0.00 in
16:44 82.1 °F 68.3 °F 30.05 in WNW 3.5 mph   63% 0.00 in
16:49 82.3 °F 69.4 °F 30.06 in West 4.0 mph 4.0 mph 65% 0.00 in
16:54 82.2 °F 68.3 °F 30.05 in Calm   0.4 mph 63% 0.00 in
16:59 82.0 °F 67.2 °F 30.05 in WSW 1.2 mph 1.2 mph 61% 0.00 in
17:04 81.8 °F 67.0 °F 30.05 in Calm     61% 0.00 in
17:09 81.7 °F 67.9 °F 30.05 in WSW 1.2 mph   63% 0.00 in
17:14 81.8 °F 67.0 °F 30.05 in WSW 2.3 mph 2.3 mph 61% 0.00 in
17:19 82.0 °F 68.6 °F 30.05 in WSW 3.5 mph 3.5 mph 64% 0.00 in
17:24 82.1 °F 68.3 °F 30.05 in WSW 1.2 mph   63% 0.00 in
17:29 81.9 °F 68.1 °F 30.05 in Calm     63% 0.00 in
17:34 81.7 °F 68.8 °F 30.04 in WSW 2.0 mph 2.0 mph 65% 0.00 in
17:39 81.9 °F 67.6 °F 30.05 in WSW 3.5 mph 3.5 mph 62% 0.00 in
17:44 82.1 °F 68.7 °F 30.04 in WSW 1.2 mph   64% 0.00 in
17:49 82.2 °F 68.8 °F 30.04 in WSW 1.2 mph 1.2 mph 64% 0.00 in
17:54 82.3 °F 68.4 °F 30.05 in WSW 2.3 mph   63% 0.00 in
17:59 82.3 °F 68.9 °F 30.04 in Calm     64% 0.00 in
18:04 82.4 °F 69.4 °F 30.04 in Calm     65% 0.00 in
18:09 82.2 °F 68.8 °F 30.04 in Calm     64% 0.00 in
18:14 82.1 °F 68.7 °F 30.04 in Calm     64% 0.00 in
18:19 82.1 °F 70.1 °F 30.04 in Calm     67% 0.00 in
18:24 82.0 °F 70.0 °F 30.04 in Calm     67% 0.00 in
18:29 82.0 °F 70.0 °F 30.04 in Calm     67% 0.00 in
18:34 81.8 °F 69.8 °F 30.05 in WSW 1.0 mph 1.0 mph 67% 0.00 in
18:39 81.4 °F 69.4 °F 30.05 in WSW 4.6 mph 4.6 mph 67% 0.00 in
18:44 80.8 °F 69.7 °F 30.05 in Calm     69% 0.00 in
18:49 80.2 °F 69.5 °F 30.05 in WSW 2.3 mph 2.3 mph 70% 0.00 in
18:54 79.9 °F 69.7 °F 30.05 in Calm     71% 0.00 in
18:59 79.6 °F 69.8 °F 30.05 in WSW 1.2 mph   72% 0.00 in
19:04 79.2 °F 69.4 °F 30.05 in WSW 1.2 mph 1.2 mph 72% 0.00 in
19:09 78.9 °F 69.5 °F 30.04 in WSW 1.2 mph   73% 0.00 in
19:14 78.7 °F 69.7 °F 30.05 in Calm     74% 0.00 in
19:19 78.6 °F 69.6 °F 30.05 in WSW 1.2 mph 1.2 mph 74% 0.00 in
19:24 78.2 °F 69.6 °F 30.05 in Calm     75% 0.00 in
19:29 78.1 °F 69.9 °F 30.05 in WSW 1.0 mph   76% 0.00 in
19:34 78.0 °F 69.8 °F 30.05 in Calm     76% 0.00 in
19:39 77.9 °F 69.7 °F 30.05 in WSW 1.2 mph   76% 0.00 in
19:44 77.8 °F 69.6 °F 30.05 in Calm     76% 0.00 in
19:49 77.6 °F 69.4 °F 30.05 in Calm     76% 0.00 in
19:54 77.5 °F 69.3 °F 30.05 in WSW 1.2 mph   76% 0.00 in
19:59 77.4 °F 69.6 °F 30.05 in Calm     77% 0.00 in
20:04 77.2 °F 69.4 °F 30.05 in Calm     77% 0.00 in
20:09 77.0 °F 68.9 °F 30.05 in Calm     76% 0.00 in
20:14 76.8 °F 68.7 °F 30.05 in Calm     76% 0.00 in
20:19 76.6 °F 68.5 °F 30.05 in Calm     76% 0.00 in
20:24 76.4 °F 68.3 °F 30.06 in Calm     76% 0.00 in
20:29 76.2 °F 68.5 °F 30.06 in Calm     77% 0.00 in
20:34 76.0 °F 67.9 °F 30.06 in Calm     76% 0.00 in
20:39 75.8 °F 67.7 °F 30.06 in Calm     76% 0.00 in
20:44 75.6 °F 67.9 °F 30.06 in Calm     77% 0.00 in
20:54 75.1 °F 67.8 °F 30.06 in Calm     78% 0.00 in
Mechanicsburg,PA USA
Compliments of Weather Underground